Tallulah Falls, Georgia
Current Conditions -  °F | °C
As of 10:55 AM on Friday 31 Oct 2014 (Local Time) from KTOC Reporting Station
Clear Clear  
Wind Chill: 55°   Ceiling: Unl
Heat Index: 55°   Visibility: 10mi
Dew Point: 43°   Wind: 3mph
Humidity: 63%   Direction: 100°E
Pressure: 29.95"   Gusts: NA
Location:  34.73°N, 83.39°W
Report Text: KTOC 311455Z AUTO 10003KT 10SM CLR 13/06 A2995 RMK AO2 T01300062
Loading
Personal Weather Stations






























Interactive Weather Map
Tropical Storm Tracking
New forecast layout! Learn more

10-Day Weather Forecast

Advertisements
Track Severe Weather on mobile